createdAt,value
2023-05-23T00:01:32.470Z,99.90
2023-05-23T00:06:38.932Z,99.90
2023-05-23T00:11:45.240Z,99.90
2023-05-23T00:16:49.678Z,99.90
2023-05-23T00:21:58.748Z,99.90
2023-05-23T00:27:03.028Z,99.90
2023-05-23T00:32:07.252Z,99.90
2023-05-23T00:37:12.938Z,99.90
2023-05-23T00:42:16.998Z,99.90
2023-05-23T00:47:21.444Z,99.90
2023-05-23T00:52:27.280Z,99.90
2023-05-23T00:57:31.476Z,99.90
2023-05-23T01:02:39.223Z,99.90
2023-05-23T01:07:44.835Z,99.90
2023-05-23T01:13:02.506Z,99.90
2023-05-23T01:18:17.043Z,99.90
2023-05-23T01:23:56.173Z,99.90
2023-05-23T01:29:10.460Z,99.90
2023-05-23T01:34:17.170Z,99.90
2023-05-23T01:39:21.287Z,99.90
2023-05-23T01:44:27.420Z,99.90
2023-05-23T01:49:37.338Z,99.90
2023-05-23T01:54:44.015Z,99.90
2023-05-23T01:59:49.651Z,99.90
2023-05-23T02:04:57.323Z,99.90
2023-05-23T02:10:01.752Z,99.90
2023-05-23T02:15:09.411Z,99.90
2023-05-23T02:20:14.518Z,99.90
2023-05-23T02:25:18.701Z,99.90
2023-05-23T02:30:24.404Z,99.90
2023-05-23T02:35:28.662Z,99.90
2023-05-23T02:40:32.788Z,99.90
2023-05-23T02:45:40.287Z,99.90
2023-05-23T02:50:44.740Z,99.90
2023-05-23T02:55:48.857Z,99.90
2023-05-23T03:00:54.315Z,99.90
2023-05-23T03:05:58.462Z,99.90
2023-05-23T03:11:02.734Z,99.90
2023-05-23T03:16:08.601Z,99.90
2023-05-23T03:21:12.718Z,99.90
2023-05-23T03:26:16.916Z,99.90
2023-05-23T03:31:22.674Z,99.90
2023-05-23T03:36:28.375Z,99.90
2023-05-23T03:41:32.852Z,99.90
2023-05-23T03:46:39.703Z,99.90
2023-05-23T03:51:44.771Z,99.90
2023-05-23T03:56:52.882Z,99.90
2023-05-23T04:01:59.434Z,99.90
2023-05-23T04:07:05.697Z,99.90
2023-05-23T04:12:12.010Z,99.90
2023-05-23T04:17:18.562Z,99.90
2023-05-23T04:22:23.138Z,99.90
2023-05-23T04:27:27.378Z,99.90
2023-05-23T04:32:33.359Z,99.90
2023-05-23T04:37:37.929Z,99.90
2023-05-23T04:42:44.689Z,99.90
2023-05-23T04:48:10.339Z,99.90
2023-05-23T04:53:23.728Z,99.90
2023-05-23T04:58:28.099Z,99.90
2023-05-23T05:03:37.235Z,99.90
2023-05-23T05:08:41.800Z,99.90
2023-05-23T05:13:47.621Z,99.90
2023-05-23T05:18:53.419Z,99.90
2023-05-23T05:24:00.027Z,99.90
2023-05-23T05:29:04.512Z,99.90
2023-05-23T05:34:10.260Z,99.90
2023-05-23T05:39:15.099Z,99.90
2023-05-23T05:44:19.734Z,99.90
2023-05-23T05:49:25.234Z,99.90
2023-05-23T05:54:29.665Z,99.90
2023-05-23T05:59:34.097Z,99.90
2023-05-23T06:04:39.655Z,99.90
2023-05-23T06:09:44.913Z,99.90
2023-05-23T06:14:48.986Z,99.90
2023-05-23T06:19:55.719Z,99.90
2023-05-23T06:25:00.455Z,99.90
2023-05-23T06:30:05.360Z,99.90
2023-05-23T06:35:11.448Z,99.90
2023-05-23T06:40:15.550Z,99.90
2023-05-23T06:45:19.946Z,99.90
2023-05-23T06:50:25.472Z,99.90
2023-05-23T06:55:32.017Z,99.90
2023-05-23T07:00:36.309Z,99.90
2023-05-23T07:05:50.344Z,99.90
2023-05-23T07:10:57.139Z,99.90
2023-05-23T07:16:10.343Z,99.90
2023-05-23T07:21:26.387Z,99.90
2023-05-23T07:26:30.999Z,99.90
2023-05-23T07:31:35.503Z,99.90
2023-05-23T07:36:42.555Z,99.90
2023-05-23T07:41:50.294Z,99.90
2023-05-23T07:46:55.937Z,99.90
2023-05-23T07:52:02.704Z,99.90
2023-05-23T07:57:10.749Z,99.90
2023-05-23T08:02:15.997Z,99.90
2023-05-23T08:07:22.062Z,99.90
2023-05-23T08:12:33.904Z,99.90
2023-05-23T08:17:45.418Z,99.90
2023-05-23T08:22:58.330Z,99.90
2023-05-23T08:28:03.131Z,99.90
2023-05-23T08:33:19.213Z,99.90
2023-05-23T08:38:27.522Z,99.90
2023-05-23T08:43:49.973Z,99.90
2023-05-23T08:49:23.040Z,99.90
2023-05-23T08:54:41.153Z,99.90
2023-05-23T08:59:46.467Z,99.90
2023-05-23T09:04:50.906Z,99.90
2023-05-23T09:10:01.376Z,99.90
2023-05-23T09:15:07.936Z,99.90
2023-05-23T09:20:14.824Z,99.90
2023-05-23T09:25:26.856Z,99.90
2023-05-23T09:30:36.047Z,99.90
2023-05-23T09:35:46.481Z,99.90
2023-05-23T09:40:54.933Z,99.90
2023-05-23T09:46:02.742Z,99.90
2023-05-23T09:51:07.762Z,99.90
2023-05-23T09:56:15.552Z,99.80
2023-05-23T10:01:20.316Z,99.90
2023-05-23T10:06:28.302Z,99.60
2023-05-23T10:12:37.039Z,99.70
2023-05-23T10:18:03.861Z,99.40
2023-05-23T10:23:08.547Z,99.30
2023-05-23T10:28:15.079Z,98.60
2023-05-23T10:33:19.554Z,98.50
2023-05-23T10:38:36.073Z,98.60
2023-05-23T10:43:50.797Z,98.10
2023-05-23T10:48:58.424Z,97.50
2023-05-23T10:54:04.471Z,96.90
2023-05-23T10:59:11.370Z,97.00
2023-05-23T11:04:15.786Z,96.80
2023-05-23T11:09:22.072Z,96.60
2023-05-23T11:14:56.213Z,96.40
2023-05-23T11:20:06.526Z,94.90
2023-05-23T11:25:12.651Z,95.00
2023-05-23T11:30:19.643Z,95.10
2023-05-23T11:35:24.142Z,94.70
2023-05-23T11:40:33.075Z,94.40
2023-05-23T11:45:40.407Z,93.60
2023-05-23T11:50:49.440Z,93.30
2023-05-23T11:55:56.528Z,92.90
2023-05-23T12:01:03.280Z,92.50
2023-05-23T12:06:07.552Z,91.90
2023-05-23T12:11:11.949Z,90.00
2023-05-23T12:16:17.614Z,91.30
2023-05-23T12:21:22.085Z,90.80
2023-05-23T12:26:26.868Z,90.50
2023-05-23T12:31:32.526Z,90.10
2023-05-23T12:36:48.010Z,90.00
2023-05-23T12:41:53.442Z,89.40
2023-05-23T12:47:00.028Z,89.10
2023-05-23T12:52:05.714Z,87.90
2023-05-23T12:57:13.407Z,87.30
2023-05-23T13:02:20.006Z,87.30
2023-05-23T13:07:25.032Z,86.80
2023-05-23T13:12:30.964Z,86.50
2023-05-23T13:17:37.108Z,86.60
2023-05-23T13:22:42.146Z,87.10
2023-05-23T13:27:48.882Z,86.20
2023-05-23T13:32:55.790Z,86.00
2023-05-23T13:38:00.294Z,85.20
2023-05-23T13:43:04.938Z,84.90
2023-05-23T13:48:11.266Z,84.70
2023-05-23T13:53:17.037Z,83.90
2023-05-23T13:58:21.488Z,83.20
2023-05-23T14:03:28.254Z,83.10
2023-05-23T14:08:33.942Z,82.60
2023-05-23T14:13:38.423Z,82.60
2023-05-23T14:18:45.286Z,82.20
2023-05-23T14:23:59.045Z,81.70
2023-05-23T14:29:04.168Z,80.90
2023-05-23T14:34:10.221Z,80.60
2023-05-23T14:39:16.134Z,80.30
2023-05-23T14:44:20.695Z,78.00
2023-05-23T14:49:27.168Z,79.50
2023-05-23T14:54:31.913Z,79.30
2023-05-23T14:59:36.868Z,79.20
2023-05-23T15:04:42.860Z,78.70
2023-05-23T15:09:47.862Z,78.30
2023-05-23T15:14:52.082Z,78.00
2023-05-23T15:19:58.079Z,78.10
2023-05-23T15:25:02.374Z,78.00
2023-05-23T15:30:10.005Z,77.90
2023-05-23T15:35:17.141Z,77.70
2023-05-23T15:40:24.089Z,77.20
2023-05-23T15:45:28.780Z,77.10
2023-05-23T15:50:34.985Z,76.90
2023-05-23T15:55:42.052Z,77.00
2023-05-23T16:00:47.491Z,76.60
2023-05-23T16:05:54.920Z,76.70
2023-05-23T16:10:59.418Z,76.50
2023-05-23T16:16:05.200Z,76.30
2023-05-23T16:21:11.197Z,76.50
2023-05-23T16:26:16.252Z,76.20
2023-05-23T16:31:27.465Z,76.00
2023-05-23T16:36:33.992Z,75.70
2023-05-23T16:41:38.139Z,75.80
2023-05-23T16:46:42.979Z,75.60
2023-05-23T16:51:50.190Z,75.30
2023-05-23T16:56:54.570Z,75.10
2023-05-23T17:01:59.130Z,74.90
2023-05-23T17:07:05.874Z,74.90
2023-05-23T17:12:10.703Z,74.60
2023-05-23T17:17:15.873Z,74.20
2023-05-23T17:22:24.072Z,73.80
2023-05-23T17:27:28.960Z,73.70
2023-05-23T17:32:33.395Z,73.70
2023-05-23T17:37:43.865Z,73.40
2023-05-23T17:42:48.725Z,73.20
2023-05-23T17:47:55.908Z,73.00
2023-05-23T17:53:04.102Z,72.70
2023-05-23T17:58:09.850Z,72.70
2023-05-23T18:03:15.441Z,72.40
2023-05-23T18:08:21.536Z,72.30
2023-05-23T18:13:26.489Z,72.30
2023-05-23T18:18:33.116Z,72.40
2023-05-23T18:23:39.278Z,72.10
2023-05-23T18:28:45.483Z,72.20
2023-05-23T18:33:51.891Z,72.00
2023-05-23T18:38:58.296Z,72.00
2023-05-23T18:44:05.115Z,72.00
2023-05-23T18:49:09.287Z,72.00
2023-05-23T18:54:24.091Z,72.00
2023-05-23T18:59:28.374Z,72.00
2023-05-23T19:04:34.032Z,72.00
2023-05-23T19:09:39.854Z,71.90
2023-05-23T19:14:44.744Z,71.90
2023-05-23T19:19:49.205Z,71.80
2023-05-23T19:24:55.704Z,71.90
2023-05-23T19:30:00.459Z,71.90
2023-05-23T19:35:09.817Z,71.90
2023-05-23T19:40:17.406Z,72.00
2023-05-23T19:45:22.195Z,72.20
2023-05-23T19:50:34.185Z,72.20
2023-05-23T19:55:40.112Z,72.20
2023-05-23T20:00:47.457Z,72.30
2023-05-23T20:05:51.774Z,72.40
2023-05-23T20:10:59.558Z,72.40
2023-05-23T20:16:05.677Z,72.60
2023-05-23T20:21:10.128Z,72.60
2023-05-23T20:26:16.117Z,72.70
2023-05-23T20:31:20.324Z,72.70
2023-05-23T20:36:25.298Z,72.90
2023-05-23T20:41:31.181Z,72.90
2023-05-23T20:46:36.852Z,73.10
2023-05-23T20:51:41.659Z,73.20
2023-05-23T20:56:52.770Z,73.30
2023-05-23T21:01:57.295Z,73.60
2023-05-23T21:07:02.706Z,73.50
2023-05-23T21:12:08.898Z,73.70
2023-05-23T21:17:13.743Z,73.70
2023-05-23T21:22:18.668Z,73.90
2023-05-23T21:27:24.742Z,74.10
2023-05-23T21:32:29.424Z,74.20
2023-05-23T21:37:36.514Z,74.40
2023-05-23T21:42:43.092Z,74.50
2023-05-23T21:47:47.585Z,74.60
2023-05-23T21:52:52.493Z,74.80
2023-05-23T21:57:58.271Z,75.00
2023-05-23T22:03:02.684Z,75.10
2023-05-23T22:08:08.037Z,75.20
2023-05-23T22:13:13.597Z,75.40
2023-05-23T22:18:18.264Z,75.50
2023-05-23T22:23:22.840Z,75.60
2023-05-23T22:28:28.484Z,75.70
2023-05-23T22:33:32.515Z,75.90
2023-05-23T22:38:37.618Z,76.10
2023-05-23T22:43:43.288Z,76.20
2023-05-23T22:48:47.362Z,76.30
2023-05-23T22:53:51.458Z,76.70
2023-05-23T22:58:56.926Z,76.70
2023-05-23T23:04:01.017Z,76.90
2023-05-23T23:09:05.669Z,77.10
2023-05-23T23:14:11.340Z,77.20
2023-05-23T23:19:15.522Z,77.40
2023-05-23T23:24:19.532Z,77.60
2023-05-23T23:29:24.962Z,77.80
2023-05-23T23:34:29.135Z,78.00
2023-05-23T23:39:33.323Z,78.20
2023-05-23T23:44:38.643Z,78.40
2023-05-23T23:49:42.848Z,78.60
2023-05-23T23:54:46.920Z,78.70
2023-05-23T23:59:52.387Z,78.90
